Portada
METAR-TAF:

METAR-TAF

Aeroports :

Djibouti, Djibouti

latitud: 11-33N, longitud: 043-10E, altitud: 49 m

Observació

L'informe es va fer fa 17 minuts, a les 19:00 UTC
Vent 6 kt del Sud/Sud-Est
Temperatura 27°C
Humitat 74%
Pressió 1014 hPa
Visibilitat 10 km o més
Escasses núvols a una alçada de 2000 ft

METAR: HDAM 281900Z 16006KT 9999 FEW020 27/22 Q1014

Hora: 22:17 (19:17 UTC)

Pronòstic

L'informe es va fer fa 2 hores i 17 minuts, a les 17:00 UTC
Pronòstic vàlid del 28 a les 18 UTC al 01 a les 18 UTC
Vent 5 kt amb direcció variable
Visibilitat 10 km o més
Escasses núvols a una alçada de 2000 ft
Evolucionant progressivament
l' 01 a les 00 UTC al 01 a les 06 UTC
Vent kt del Nord
Visibilitat: 9000 m
Núvols disperses a una alçada de 2000 ft
calitja
Evolucionant progressivament
l' 01 a les 06 UTC al 01 a les 12 UTC
Vent 10 kt del Est/Nord-Est
Escasses núvols a una alçada de 2000 ft

TAF: HDAM 281700Z 2818/0118 VRB05KT 9999 FEW020 BECMG 0100/0106 00000KT 9000 HZ SCT020 BECMG 0106/0112 06010KT FEW020

Observacions i pronòstics meteorològics de més de 4000 aeroports (METAR i TAF).

Les estacions disponibles són els punts grocs i vermells al mapa.

Posi el ratolí al punt desitjat per veure el nom de l'estació.

Feu clic per veure les observacions i els pronòstics meteorològics.

Per canviar el mapa: feu clic els botons verds amb una creu de color negre per apropar; al botó verd amb un guió per allunyar la imatge; o en les fletxes verdes per a mapes adjacents.


METAR-TAF: